Time;durP1;ratioP1;P1;durP2;ratioP2;P2;SDS_P1;SDS_P2;PMS_P1;PMS_P2;Temp;Humidity;BMP_temperature;BMP_pressure;BME280_temperature;BME280_humidity;BME280_pressure;Samples;Min_cycle;Max_cycle;Signal;HPM_P1;HPM_P2
2023/07/21 00:01:08;;;;;;;3.85;2.60;;;15.40;99.90;;;;;;5003842;28;20169;-78
2023/07/21 00:03:34;;;;;;;3.25;2.25;;;15.40;99.90;;;;;;5021607;28;20044;-78
2023/07/21 00:06:02;;;;;;;4.22;2.95;;;15.40;99.90;;;;;;5021261;28;20049;-79
2023/07/21 00:08:30;;;;;;;3.95;2.70;;;15.40;99.90;;;;;;5023967;28;20040;-78
2023/07/21 00:10:57;;;;;;;4.30;2.95;;;15.40;99.90;;;;;;5025091;28;20056;-78
2023/07/21 00:13:24;;;;;;;4.07;2.58;;;15.30;99.90;;;;;;5005493;28;20157;-78
2023/07/21 00:15:49;;;;;;;6.10;2.88;;;15.30;99.90;;;;;;5024207;28;20316;-78
2023/07/21 00:18:15;;;;;;;4.13;3.13;;;15.30;99.90;;;;;;5022859;28;20435;-78
2023/07/21 00:20:42;;;;;;;5.13;3.42;;;15.30;99.90;;;;;;5022778;28;20440;-78
2023/07/21 00:23:08;;;;;;;4.35;3.03;;;15.30;99.90;;;;;;5021897;28;20092;-79
2023/07/21 00:25:34;;;;;;;3.30;2.58;;;15.20;99.90;;;;;;5023117;28;20103;-78
2023/07/21 00:27:59;;;;;;;6.55;3.67;;;15.20;99.90;;;;;;5023012;28;20466;-78
2023/07/21 00:30:25;;;;;;;6.03;2.85;;;15.10;99.90;;;;;;5038877;28;20072;-78
2023/07/21 00:32:51;;;;;;;4.43;2.85;;;15.10;99.90;;;;;;5006974;28;20107;-78
2023/07/21 00:35:17;;;;;;;4.70;3.00;;;15.10;99.90;;;;;;5022484;28;20091;-78
2023/07/21 00:37:43;;;;;;;3.35;2.83;;;15.10;99.90;;;;;;5051783;28;20045;-78
2023/07/21 00:40:20;;;;;;;5.25;2.95;;;15.00;99.90;;;;;;5022210;28;20041;-78
2023/07/21 00:42:46;;;;;;;3.92;2.38;;;15.00;99.90;;;;;;5021438;28;20069;-78
2023/07/21 00:45:15;;;;;;;3.90;2.33;;;15.00;99.90;;;;;;5019284;28;20037;-78
2023/07/21 00:47:41;;;;;;;4.03;2.70;;;15.00;99.90;;;;;;5004350;28;20049;-78
2023/07/21 00:50:11;;;;;;;4.57;2.90;;;15.00;99.90;;;;;;5011132;28;20128;-78
2023/07/21 00:52:38;;;;;;;5.10;2.47;;;15.00;99.90;;;;;;5023275;28;20041;-78
2023/07/21 00:55:05;;;;;;;4.70;2.50;;;15.00;99.90;;;;;;5022184;28;20652;-78
2023/07/21 00:57:32;;;;;;;4.85;2.40;;;15.00;99.90;;;;;;5023317;28;20503;-78
2023/07/21 00:59:58;;;;;;;3.90;2.58;;;14.90;99.90;;;;;;5005727;28;20053;-78
2023/07/21 01:02:24;;;;;;;3.92;2.38;;;14.90;99.90;;;;;;5020752;28;20040;-78
2023/07/21 01:04:51;;;;;;;3.75;2.42;;;15.00;99.90;;;;;;5120060;22;20095;-72
2023/07/21 01:07:18;;;;;;;3.75;2.55;;;14.90;99.90;;;;;;5014292;28;20070;-72
2023/07/21 01:09:45;;;;;;;3.75;2.40;;;14.90;99.90;;;;;;5016745;28;20523;-72
2023/07/21 01:12:11;;;;;;;3.95;2.28;;;14.90;99.90;;;;;;5003725;28;20104;-72
2023/07/21 01:14:37;;;;;;;3.45;2.33;;;14.80;99.90;;;;;;5004928;28;20044;-72
2023/07/21 01:17:07;;;;;;;2.53;2.15;;;14.80;99.90;;;;;;5004709;28;20052;-72
2023/07/21 01:19:36;;;;;;;3.22;2.15;;;14.70;99.90;;;;;;5024203;28;20037;-72
2023/07/21 01:22:24;;;;;;;5.35;2.33;;;14.80;99.90;;;;;;5022319;28;20064;-72
2023/07/21 01:24:50;;;;;;;3.28;2.15;;;14.80;99.90;;;;;;5013806;28;20042;-72
2023/07/21 01:27:21;;;;;;;3.90;2.50;;;14.70;99.90;;;;;;5003439;28;20092;-73
2023/07/21 01:29:49;;;;;;;3.53;2.33;;;14.70;99.90;;;;;;5004272;28;20084;-72
2023/07/21 01:32:18;;;;;;;9.18;2.45;;;14.70;99.90;;;;;;4988070;28;20176;-74
2023/07/21 01:34:44;;;;;;;5.47;2.35;;;14.70;99.90;;;;;;5004062;28;20038;-72
2023/07/21 01:37:11;;;;;;;3.55;2.00;;;14.70;99.90;;;;;;5009632;28;20063;-72
2023/07/21 01:39:39;;;;;;;3.78;2.47;;;14.60;99.90;;;;;;5023850;28;20029;-72
2023/07/21 01:42:06;;;;;;;4.22;2.40;;;14.60;99.90;;;;;;5022361;28;20049;-72
2023/07/21 01:44:32;;;;;;;5.95;2.70;;;14.60;99.90;;;;;;5001451;28;20049;-72
2023/07/21 01:46:58;;;;;;;4.15;2.30;;;14.70;99.90;;;;;;5003316;28;20053;-72
2023/07/21 01:49:24;;;;;;;6.63;2.83;;;14.60;99.90;;;;;;5003571;28;20045;-72
2023/07/21 01:51:52;;;;;;;4.53;2.38;;;14.60;99.90;;;;;;5004161;28;20054;-72
2023/07/21 01:54:31;;;;;;;3.25;2.10;;;14.50;99.90;;;;;;5013867;28;20080;-71
2023/07/21 01:57:03;;;;;;;5.50;2.47;;;14.50;99.90;;;;;;5002579;28;20292;-73
2023/07/21 01:59:29;;;;;;;6.03;2.70;;;14.40;99.90;;;;;;5003177;28;20050;-72
2023/07/21 02:01:56;;;;;;;4.40;2.90;;;14.40;99.90;;;;;;5007572;28;20057;-72
2023/07/21 02:04:22;;;;;;;5.20;3.00;;;14.40;99.90;;;;;;5006385;28;20041;-72
2023/07/21 02:06:48;;;;;;;2.88;1.98;;;14.40;99.90;;;;;;5017854;28;20076;-72
2023/07/21 02:09:14;;;;;;;5.32;2.47;;;14.40;99.90;;;;;;5003653;28;20041;-72
2023/07/21 02:11:43;;;;;;;3.53;2.05;;;14.40;99.90;;;;;;4984612;28;20068;-72
2023/07/21 02:14:09;;;;;;;3.30;2.33;;;14.40;99.90;;;;;;5003684;28;20045;-72
2023/07/21 02:16:37;;;;;;;3.67;2.50;;;14.40;99.90;;;;;;5018031;28;20132;-72
2023/07/21 02:19:05;;;;;;;3.88;2.33;;;14.40;99.90;;;;;;5021369;28;20072;-72
2023/07/21 02:21:31;;;;;;;6.18;2.58;;;14.40;99.90;;;;;;5021192;28;20052;-72
2023/07/21 02:23:56;;;;;;;4.25;2.45;;;14.40;99.90;;;;;;5006708;28;20419;-72
2023/07/21 02:26:22;;;;;;;3.33;2.00;;;14.40;99.90;;;;;;5020261;28;20048;-72
2023/07/21 02:28:48;;;;;;;2.95;1.92;;;14.30;99.90;;;;;;5022901;28;20415;-72
2023/07/21 02:31:13;;;;;;;3.80;2.05;;;14.30;99.90;;;;;;5021642;28;20721;-72
2023/07/21 02:33:39;;;;;;;4.38;2.33;;;14.40;99.90;;;;;;5019733;28;20048;-72
2023/07/21 02:36:05;;;;;;;3.67;2.03;;;14.40;99.90;;;;;;5001831;28;20384;-72
2023/07/21 02:38:31;;;;;;;4.60;2.22;;;14.40;99.90;;;;;;5002583;28;20430;-72
2023/07/21 02:41:05;;;;;;;3.65;2.20;;;14.30;99.90;;;;;;4986294;28;20062;-72
2023/07/21 02:43:32;;;;;;;4.15;2.53;;;14.30;99.90;;;;;;5002505;28;20046;-72
2023/07/21 02:45:58;;;;;;;4.15;2.17;;;14.20;99.90;;;;;;5002886;28;20038;-72
2023/07/21 02:48:23;;;;;;;3.30;2.03;;;14.20;99.90;;;;;;5005541;28;20037;-72
2023/07/21 02:50:51;;;;;;;4.85;3.17;;;14.20;99.90;;;;;;5020271;28;20046;-72
2023/07/21 02:53:18;;;;;;;3.95;2.03;;;14.20;99.90;;;;;;5004868;28;20077;-72
2023/07/21 02:55:44;;;;;;;2.83;2.13;;;14.20;99.90;;;;;;5002154;28;20456;-71
2023/07/21 02:58:12;;;;;;;3.20;2.00;;;14.20;99.90;;;;;;5001532;28;20050;-72
2023/07/21 03:00:38;;;;;;;2.88;1.90;;;14.10;99.90;;;;;;5001994;28;20046;-72
2023/07/21 03:03:04;;;;;;;3.55;1.83;;;14.10;99.90;;;;;;5009754;28;20499;-71
2023/07/21 03:05:30;;;;;;;9.15;2.30;;;14.10;99.90;;;;;;5020935;28;20056;-72
2023/07/21 03:07:57;;;;;;;3.40;2.35;;;14.10;99.90;;;;;;5022045;28;20050;-71
2023/07/21 03:10:23;;;;;;;4.63;2.33;;;14.10;99.90;;;;;;5022483;28;20403;-72
2023/07/21 03:12:48;;;;;;;2.70;1.92;;;14.10;99.90;;;;;;5021838;28;20124;-72
2023/07/21 03:15:15;;;;;;;4.45;2.83;;;14.10;99.90;;;;;;5021502;28;20068;-72
2023/07/21 03:17:41;;;;;;;5.78;2.67;;;14.10;99.90;;;;;;5023191;28;20395;-71
2023/07/21 03:20:15;;;;;;;4.25;2.38;;;14.00;99.90;;;;;;5020749;28;20041;-72
2023/07/21 03:22:43;;;;;;;3.85;1.98;;;14.10;99.90;;;;;;5022427;28;20044;-72
2023/07/21 03:25:10;;;;;;;3.80;2.78;;;14.00;99.90;;;;;;5024751;28;20060;-72
2023/07/21 03:27:38;;;;;;;5.20;2.30;;;14.00;99.90;;;;;;5025622;28;20045;-72
2023/07/21 03:30:04;;;;;;;3.35;2.05;;;14.00;99.90;;;;;;5025007;28;20046;-71
2023/07/21 03:32:30;;;;;;;3.45;2.45;;;14.00;99.90;;;;;;5024903;28;20061;-72
2023/07/21 03:34:56;;;;;;;6.13;2.90;;;14.00;99.90;;;;;;5008750;28;20045;-72
2023/07/21 03:37:25;;;;;;;4.97;2.53;;;14.10;99.90;;;;;;5025915;28;20447;-71
2023/07/21 03:39:52;;;;;;;4.82;2.28;;;14.00;99.90;;;;;;5026435;28;20041;-72
2023/07/21 03:42:18;;;;;;;3.47;1.83;;;14.00;99.90;;;;;;5023606;28;20046;-72
2023/07/21 03:44:47;;;;;;;5.45;2.63;;;14.10;99.90;;;;;;5024813;28;20056;-71
2023/07/21 03:47:17;;;;;;;3.53;2.45;;;14.10;99.90;;;;;;5024189;28;20171;-72
2023/07/21 03:49:43;;;;;;;3.33;2.00;;;14.00;99.90;;;;;;5025631;28;20037;-72
2023/07/21 03:52:09;;;;;;;4.60;2.47;;;14.10;99.90;;;;;;5007880;28;20049;-72
2023/07/21 03:54:35;;;;;;;4.85;2.75;;;14.10;99.90;;;;;;5024848;28;20041;-72
2023/07/21 03:57:00;;;;;;;5.97;2.38;;;14.10;99.90;;;;;;5024358;28;20073;-72
2023/07/21 03:59:26;;;;;;;4.88;2.35;;;14.00;99.90;;;;;;5026264;28;20392;-72
2023/07/21 04:01:52;;;;;;;3.53;2.30;;;14.00;99.90;;;;;;5022979;28;20042;-71
2023/07/21 04:04:17;;;;;;;6.13;2.75;;;14.00;99.90;;;;;;5023362;28;20500;-72
2023/07/21 04:06:43;;;;;;;4.25;2.25;;;14.00;99.90;;;;;;5023954;28;20589;-72
2023/07/21 04:09:13;;;;;;;5.05;2.95;;;14.00;99.90;;;;;;5024184;28;20099;-71
2023/07/21 04:11:39;;;;;;;5.60;2.65;;;14.00;99.90;;;;;;5023030;28;20045;-72
2023/07/21 04:14:04;;;;;;;6.45;2.95;;;14.00;99.90;;;;;;5024112;28;20463;-72
2023/07/21 04:16:30;;;;;;;6.90;3.03;;;14.00;99.90;;;;;;5025246;28;20050;-72
2023/07/21 04:18:56;;;;;;;4.32;2.25;;;14.10;99.90;;;;;;5026055;28;20209;-72
2023/07/21 04:21:22;;;;;;;2.85;2.15;;;14.10;99.90;;;;;;5024653;28;20113;-72
2023/07/21 04:23:48;;;;;;;3.08;2.05;;;14.10;99.90;;;;;;5007521;28;20041;-72
2023/07/21 04:26:14;;;;;;;4.43;3.13;;;14.10;99.90;;;;;;5023049;28;20046;-72
2023/07/21 04:28:41;;;;;;;3.35;1.98;;;14.10;99.90;;;;;;5025298;28;20047;-71
2023/07/21 04:31:08;;;;;;;5.22;2.55;;;14.10;99.90;;;;;;5006874;28;20496;-72
2023/07/21 04:33:35;;;;;;;3.97;2.03;;;14.10;99.90;;;;;;5023610;28;20538;-72
2023/07/21 04:36:02;;;;;;;3.72;2.55;;;14.20;99.90;;;;;;5023813;28;20491;-72
2023/07/21 04:38:28;;;;;;;7.30;2.58;;;14.20;99.90;;;;;;5024533;28;20480;-72
2023/07/21 04:40:54;;;;;;;3.80;2.33;;;14.20;99.90;;;;;;5024195;28;20033;-72
2023/07/21 04:43:20;;;;;;;3.72;2.63;;;14.20;99.90;;;;;;5023191;28;20045;-72
2023/07/21 04:45:46;;;;;;;4.28;2.53;;;14.20;99.90;;;;;;5013275;28;20130;-72
2023/07/21 04:48:11;;;;;;;3.75;2.30;;;14.30;99.90;;;;;;5003491;28;20133;-71
2023/07/21 04:50:42;;;;;;;5.38;3.20;;;14.30;99.90;;;;;;5007882;28;20120;-71
2023/07/21 04:53:11;;;;;;;5.75;2.83;;;14.20;99.90;;;;;;5017986;28;20041;-71
2023/07/21 04:55:38;;;;;;;4.35;2.40;;;14.30;99.90;;;;;;5003843;28;20038;-72
2023/07/21 04:58:13;;;;;;;4.88;1.73;;;14.30;99.90;;;;;;5003941;28;20093;-72
2023/07/21 05:00:39;;;;;;;6.07;2.58;;;14.30;99.90;;;;;;5006280;28;20038;-72
2023/07/21 05:03:04;;;;;;;6.15;2.80;;;14.30;99.90;;;;;;5001050;28;20038;-72
2023/07/21 05:05:32;;;;;;;5.63;3.03;;;14.30;99.90;;;;;;5003367;28;20049;-73
2023/07/21 05:07:59;;;;;;;5.45;2.78;;;14.30;99.90;;;;;;5005264;28;20112;-71
2023/07/21 05:10:25;;;;;;;4.50;2.85;;;14.30;99.90;;;;;;5005111;28;20096;-72
2023/07/21 05:12:51;;;;;;;5.82;2.80;;;14.40;99.90;;;;;;5001972;28;20041;-72
2023/07/21 05:15:16;;;;;;;4.40;2.33;;;14.40;99.90;;;;;;4987104;28;20053;-72
2023/07/21 05:17:42;;;;;;;4.47;2.10;;;14.40;99.90;;;;;;5017179;28;20037;-72
2023/07/21 05:20:10;;;;;;;4.72;2.17;;;14.40;99.90;;;;;;4990179;28;20041;-72
2023/07/21 05:22:37;;;;;;;4.05;2.33;;;14.40;99.90;;;;;;5016372;28;20048;-72
2023/07/21 05:25:05;;;;;;;4.75;2.38;;;14.40;99.90;;;;;;5014564;28;20056;-72
2023/07/21 05:27:31;;;;;;;6.40;2.83;;;14.40;99.90;;;;;;4994212;28;20034;-72
2023/07/21 05:29:58;;;;;;;6.10;3.20;;;14.50;99.90;;;;;;5021928;28;20095;-73
2023/07/21 05:32:24;;;;;;;4.57;2.30;;;14.50;99.90;;;;;;5008445;28;20045;-73
2023/07/21 05:34:50;;;;;;;6.80;2.03;;;14.60;99.90;;;;;;5013913;28;20045;-74
2023/07/21 05:37:16;;;;;;;4.40;2.50;;;14.60;99.90;;;;;;5007453;28;20042;-74
2023/07/21 05:39:41;;;;;;;4.50;2.65;;;14.70;99.90;;;;;;4988898;28;20085;-74
2023/07/21 05:42:07;;;;;;;6.78;2.60;;;14.80;99.90;;;;;;5006980;28;20033;-74
2023/07/21 05:44:33;;;;;;;4.30;2.63;;;14.90;99.90;;;;;;5004228;28;20507;-74
2023/07/21 05:47:02;;;;;;;3.63;2.30;;;14.90;99.90;;;;;;5003125;28;20045;-74
2023/07/21 05:49:28;;;;;;;3.55;2.03;;;15.00;99.90;;;;;;4996749;28;20083;-74
2023/07/21 05:51:54;;;;;;;6.65;2.08;;;15.10;99.90;;;;;;4997465;28;20046;-76
2023/07/21 05:54:19;;;;;;;6.57;2.78;;;15.20;99.90;;;;;;5016475;28;20037;-75
2023/07/21 05:56:45;;;;;;;5.55;2.55;;;15.30;99.90;;;;;;5008955;28;20456;-77
2023/07/21 05:59:11;;;;;;;4.95;2.03;;;15.30;99.90;;;;;;5018502;28;20037;-72
2023/07/21 06:01:37;;;;;;;5.18;2.90;;;15.40;99.90;;;;;;5008230;28;20380;-75
2023/07/21 06:04:07;;;;;;;3.30;2.25;;;15.50;99.90;;;;;;5016252;28;20171;-75
2023/07/21 06:06:32;;;;;;;4.15;2.33;;;15.70;99.90;;;;;;4992546;28;20042;-75
2023/07/21 06:08:58;;;;;;;2.85;1.80;;;15.80;99.90;;;;;;5002556;28;20046;-74
2023/07/21 06:11:27;;;;;;;10.23;2.50;;;15.90;99.90;;;;;;5012787;28;20041;-74
2023/07/21 06:13:54;;;;;;;4.22;2.28;;;15.90;99.90;;;;;;5004160;28;20048;-75
2023/07/21 06:16:22;;;;;;;4.45;2.10;;;16.10;99.90;;;;;;5006247;28;20053;-74
2023/07/21 06:18:49;;;;;;;4.38;2.00;;;16.20;99.90;;;;;;5001748;28;20488;-75
2023/07/21 06:21:15;;;;;;;3.72;2.03;;;16.30;99.90;;;;;;5016822;28;20056;-75
2023/07/21 06:23:40;;;;;;;3.95;2.22;;;16.40;99.90;;;;;;5020344;28;20042;-74
2023/07/21 06:26:06;;;;;;;5.03;2.42;;;16.50;99.90;;;;;;5012692;28;20344;-79
2023/07/21 06:28:32;;;;;;;2.63;2.13;;;16.50;99.90;;;;;;5002280;28;20033;-75
2023/07/21 06:30:58;;;;;;;3.67;2.13;;;16.50;99.90;;;;;;5018724;28;20491;-74
2023/07/21 06:33:23;;;;;;;3.25;2.10;;;16.60;99.90;;;;;;5018282;28;20037;-74
2023/07/21 06:35:50;;;;;;;3.25;1.80;;;16.50;99.90;;;;;;5005945;28;20127;-75
2023/07/21 06:38:16;;;;;;;2.38;1.30;;;16.50;99.90;;;;;;5002772;28;20511;-75
2023/07/21 06:40:41;;;;;;;1.60;1.50;;;16.50;99.90;;;;;;4994886;28;20053;-73
2023/07/21 06:43:07;;;;;;;2.28;1.50;;;16.60;99.90;;;;;;5001307;28;20026;-72
2023/07/21 06:45:33;;;;;;;2.70;1.77;;;16.60;99.90;;;;;;5015524;28;20042;-74
2023/07/21 06:48:00;;;;;;;4.63;1.90;;;16.60;99.90;;;;;;5016951;28;20030;-73
2023/07/21 06:50:25;;;;;;;2.88;1.75;;;16.60;99.90;;;;;;5008400;28;20045;-73
2023/07/21 06:52:51;;;;;;;5.85;2.25;;;16.60;99.90;;;;;;5005735;28;20047;-73
2023/07/21 06:55:17;;;;;;;2.25;1.50;;;16.70;99.90;;;;;;4990721;28;20141;-74
2023/07/21 06:57:43;;;;;;;2.85;1.63;;;16.70;99.90;;;;;;4983840;28;20042;-74
2023/07/21 07:00:12;;;;;;;4.05;2.13;;;16.70;99.90;;;;;;5005211;28;20671;-74
2023/07/21 07:02:39;;;;;;;3.47;1.50;;;16.80;99.90;;;;;;5017201;28;20048;-74
2023/07/21 07:05:04;;;;;;;3.42;1.90;;;16.80;99.90;;;;;;5024515;28;20162;-74
2023/07/21 07:07:30;;;;;;;2.95;2.00;;;16.80;99.90;;;;;;4997936;28;20049;-74
2023/07/21 07:09:56;;;;;;;2.30;1.48;;;16.90;99.90;;;;;;5005158;28;20056;-74
2023/07/21 07:12:21;;;;;;;2.75;1.55;;;16.90;99.90;;;;;;5003394;28;20140;-74
2023/07/21 07:14:47;;;;;;;3.20;2.00;;;16.90;99.90;;;;;;5004784;28;20041;-74
2023/07/21 07:17:13;;;;;;;2.40;1.60;;;16.90;99.90;;;;;;5003606;28;20175;-74
2023/07/21 07:19:39;;;;;;;3.83;1.48;;;16.90;99.90;;;;;;5004803;28;20097;-74
2023/07/21 07:22:08;;;;;;;2.40;1.40;;;17.00;99.90;;;;;;5004270;28;20404;-74
2023/07/21 07:24:34;;;;;;;2.78;2.03;;;17.00;99.90;;;;;;5005340;28;20085;-74
2023/07/21 07:27:00;;;;;;;2.63;2.00;;;17.10;99.90;;;;;;5014977;28;20087;-74
2023/07/21 07:29:26;;;;;;;2.55;1.98;;;17.10;99.90;;;;;;5024127;28;20486;-74
2023/07/21 07:31:52;;;;;;;5.90;1.88;;;17.20;99.90;;;;;;5018489;28;20044;-74
2023/07/21 07:34:18;;;;;;;2.20;1.65;;;17.30;99.90;;;;;;5023267;28;20500;-74
2023/07/21 07:36:44;;;;;;;2.17;1.58;;;17.40;99.90;;;;;;5025249;28;20049;-74
2023/07/21 07:39:11;;;;;;;0.73;0.73;;;17.50;99.90;;;;;;5011109;28;20526;-73
2023/07/21 07:41:38;;;;;;;2.15;1.10;;;17.50;99.90;;;;;;5015969;28;20542;-75
2023/07/21 07:44:04;;;;;;;1.08;1.00;;;17.60;99.90;;;;;;5007514;28;20077;-74
2023/07/21 07:46:30;;;;;;;2.30;1.50;;;17.70;99.90;;;;;;5003624;28;20112;-74
2023/07/21 07:48:55;;;;;;;1.35;1.17;;;17.80;99.90;;;;;;5008147;28;20524;-75
2023/07/21 07:51:22;;;;;;;2.83;1.80;;;17.80;99.90;;;;;;5003637;28;20057;-74
2023/07/21 07:53:48;;;;;;;2.28;1.70;;;17.70;99.90;;;;;;5003071;28;20046;-75
2023/07/21 07:56:17;;;;;;;2.78;1.45;;;17.70;99.90;;;;;;5005377;28;20063;-75
2023/07/21 07:58:43;;;;;;;2.63;1.35;;;17.70;99.90;;;;;;5007796;28;20041;-75
2023/07/21 08:01:13;;;;;;;2.50;1.70;;;17.60;99.90;;;;;;5012763;28;20395;-74
2023/07/21 08:03:43;;;;;;;3.00;1.85;;;17.60;99.90;;;;;;4987690;28;20117;-75
2023/07/21 08:06:10;;;;;;;1.80;1.23;;;17.50;99.90;;;;;;5005409;28;20656;-75
2023/07/21 08:08:36;;;;;;;2.65;1.80;;;17.50;99.90;;;;;;5004837;28;20381;-75
2023/07/21 08:11:02;;;;;;;3.05;1.48;;;17.40;99.90;;;;;;5002365;28;20049;-75
2023/07/21 08:13:27;;;;;;;2.55;1.65;;;17.40;99.90;;;;;;5005044;28;20169;-75
2023/07/21 08:15:53;;;;;;;3.50;2.10;;;17.40;99.90;;;;;;4988152;28;20054;-75
2023/07/21 08:18:19;;;;;;;5.07;2.55;;;17.40;99.90;;;;;;5018422;28;20049;-76
2023/07/21 08:20:44;;;;;;;3.78;2.53;;;17.40;99.90;;;;;;5004468;28;20120;-77
2023/07/21 08:23:10;;;;;;;3.70;2.72;;;17.40;99.90;;;;;;4988724;28;20553;-76
2023/07/21 08:25:35;;;;;;;3.80;2.90;;;17.50;99.90;;;;;;5003095;28;20041;-75
2023/07/21 08:28:03;;;;;;;5.80;2.35;;;17.60;99.90;;;;;;5007730;28;20121;-76
2023/07/21 08:30:30;;;;;;;5.97;2.72;;;17.60;99.90;;;;;;5004745;28;20049;-76
2023/07/21 08:32:58;;;;;;;3.63;2.45;;;17.60;99.90;;;;;;5003558;28;20098;-75
2023/07/21 08:35:24;;;;;;;3.95;2.85;;;17.60;99.90;;;;;;5003309;28;20666;-75
2023/07/21 08:37:50;;;;;;;3.08;2.70;;;17.60;99.90;;;;;;5003070;28;20516;-75
2023/07/21 08:40:16;;;;;;;3.65;2.28;;;17.60;99.90;;;;;;5002525;28;20069;-75
2023/07/21 08:42:42;;;;;;;4.63;2.70;;;17.60;99.90;;;;;;5002769;28;20948;-75
2023/07/21 08:45:08;;;;;;;6.60;2.72;;;17.60;99.90;;;;;;4986699;28;20064;-75
2023/07/21 08:47:35;;;;;;;4.40;3.00;;;17.60;99.90;;;;;;5003244;28;20083;-75
2023/07/21 08:50:04;;;;;;;5.70;2.67;;;17.50;99.90;;;;;;5011123;28;20042;-76
2023/07/21 08:52:31;;;;;;;7.28;3.25;;;17.50;99.90;;;;;;5003572;28;20113;-76
2023/07/21 08:54:57;;;;;;;3.75;2.83;;;17.50;99.90;;;;;;5003963;28;20038;-75
2023/07/21 08:57:23;;;;;;;4.47;2.50;;;17.40;99.90;;;;;;5002767;28;20531;-76
2023/07/21 08:59:49;;;;;;;4.05;2.65;;;17.40;99.90;;;;;;5005008;28;20038;-76
2023/07/21 09:02:15;;;;;;;3.58;1.95;;;17.40;99.90;;;;;;5003435;28;20038;-75
2023/07/21 09:04:43;;;;;;;3.58;2.08;;;17.40;99.90;;;;;;5010871;28;20052;-76
2023/07/21 09:07:11;;;;;;;2.83;1.90;;;17.40;99.90;;;;;;5008588;28;20054;-76
2023/07/21 09:09:37;;;;;;;5.07;2.05;;;17.40;99.90;;;;;;5003483;28;20451;-75
2023/07/21 09:12:08;;;;;;;4.07;1.55;;;17.50;99.90;;;;;;5001239;28;20045;-75
2023/07/21 09:14:42;;;;;;;2.33;1.88;;;17.50;99.90;;;;;;5003438;28;20038;-76
2023/07/21 09:17:09;;;;;;;3.30;1.38;;;17.60;99.90;;;;;;5003449;28;20049;-75
2023/07/21 09:19:47;;;;;;;2.70;1.40;;;17.50;99.90;;;;;;5000994;28;20384;-75
2023/07/21 09:22:13;;;;;;;2.00;1.63;;;17.60;99.90;;;;;;4997823;28;20046;-77
2023/07/21 09:24:49;;;;;;;1.50;1.38;;;17.60;99.90;;;;;;5002468;28;20053;-75
2023/07/21 09:27:17;;;;;;;3.25;1.73;;;17.70;99.90;;;;;;4983476;28;20045;-76
2023/07/21 09:29:44;;;;;;;4.80;2.08;;;17.70;99.90;;;;;;5010313;28;20421;-77
2023/07/21 09:32:17;;;;;;;1.92;1.42;;;17.70;99.90;;;;;;5005133;28;20153;-77
2023/07/21 09:34:59;;;;;;;1.70;1.45;;;17.80;99.90;;;;;;5002296;28;20049;-77
2023/07/21 09:37:30;;;;;;;5.25;1.80;;;17.80;99.90;;;;;;5002014;28;20462;-76
2023/07/21 09:40:10;;;;;;;3.08;1.50;;;17.80;99.90;;;;;;5001633;28;20242;-76
2023/07/21 09:42:37;;;;;;;3.38;1.85;;;17.90;99.90;;;;;;4985428;28;20049;-75
2023/07/21 09:45:03;;;;;;;4.15;1.70;;;18.00;99.90;;;;;;5001412;28;20113;-76
2023/07/21 09:47:29;;;;;;;2.72;1.73;;;18.10;99.90;;;;;;5022270;28;20376;-76
2023/07/21 09:49:57;;;;;;;3.83;2.22;;;18.10;99.90;;;;;;5016246;28;20045;-75
2023/07/21 09:52:25;;;;;;;2.50;1.73;;;18.20;99.90;;;;;;5004004;28;20107;-77
2023/07/21 09:55:10;;;;;;;1.90;1.55;;;18.30;99.90;;;;;;5010872;28;20040;-76
2023/07/21 09:57:42;;;;;;;3.20;1.55;;;18.40;99.90;;;;;;4988142;28;20657;-77
2023/07/21 10:00:13;;;;;;;;;;;18.50;99.90;;;;;;4982351;28;20113;-76
2023/07/21 10:02:43;;;;;;;3.50;1.52;;;18.60;99.90;;;;;;4995978;28;19921;-76
2023/07/21 10:05:10;;;;;;;2.47;1.50;;;18.70;99.90;;;;;;5000976;28;20273;-77
2023/07/21 10:07:39;;;;;;;1.10;0.82;;;18.80;99.90;;;;;;5001731;28;20046;-77
2023/07/21 10:10:06;;;;;;;2.50;1.10;;;18.90;99.90;;;;;;5003561;28;20108;-76
2023/07/21 10:12:46;;;;;;;0.80;0.77;;;18.90;99.90;;;;;;5006170;28;20053;-75
2023/07/21 10:15:28;;;;;;;1.10;0.80;;;19.00;99.90;;;;;;5001147;28;20163;-76
2023/07/21 10:17:59;;;;;;;1.70;0.98;;;19.00;99.90;;;;;;5002571;28;20050;-77
2023/07/21 10:20:56;;;;;;;1.17;1.10;;;19.00;99.90;;;;;;4999763;28;20046;-76
2023/07/21 10:23:25;;;;;;;2.08;1.30;;;19.00;99.90;;;;;;4978341;28;20058;-76
2023/07/21 10:25:58;;;;;;;2.20;1.30;;;19.00;99.90;;;;;;4996549;28;20175;-78
2023/07/21 10:28:24;;;;;;;2.13;1.52;;;19.10;99.90;;;;;;4987553;28;20045;-77
2023/07/21 10:30:50;;;;;;;1.55;1.40;;;19.10;99.90;;;;;;5007550;28;20050;-77
2023/07/21 10:33:18;;;;;;;1.58;1.40;;;19.10;99.90;;;;;;5004683;28;20053;-77
2023/07/21 10:35:44;;;;;;;1.75;1.40;;;19.00;99.90;;;;;;5013903;28;20160;-77
2023/07/21 10:38:15;;;;;;;2.05;1.60;;;18.90;99.90;;;;;;5006048;28;20644;-76
2023/07/21 10:40:45;;;;;;;2.50;1.40;;;18.90;99.90;;;;;;5000413;28;20038;-77
2023/07/21 10:43:12;;;;;;;3.72;1.75;;;18.80;99.90;;;;;;5002451;28;20081;-77
2023/07/21 10:45:38;;;;;;;3.30;1.33;;;18.80;99.90;;;;;;4985289;28;20034;-77
2023/07/21 10:48:15;;;;;;;2.58;1.92;;;18.80;99.90;;;;;;5000725;28;20038;-77
2023/07/21 10:50:54;;;;;;;3.15;1.92;;;18.80;99.90;;;;;;5007236;28;20111;-77
2023/07/21 10:53:23;;;;;;;3.35;1.70;;;18.70;99.90;;;;;;5000210;28;20192;-77
2023/07/21 10:56:00;;;;;;;3.55;1.85;;;18.80;99.90;;;;;;4984408;28;20408;-76
2023/07/21 10:58:32;;;;;;;4.40;2.40;;;18.80;99.90;;;;;;5002728;28;20078;-76
2023/07/21 11:00:58;;;;;;;2.92;1.90;;;18.80;99.90;;;;;;5001575;28;20049;-77
2023/07/21 11:03:23;;;;;;;3.53;2.20;;;18.70;99.90;;;;;;4993096;28;20049;-76
2023/07/21 11:05:49;;;;;;;4.93;2.50;;;18.70;99.90;;;;;;5009703;28;20049;-77
2023/07/21 11:08:28;;;;;;;4.20;1.77;;;18.70;99.90;;;;;;4999866;28;20436;-76
2023/07/21 11:10:54;;;;;;;3.67;2.08;;;18.60;99.90;;;;;;5004255;28;20714;-76
2023/07/21 11:13:23;;;;;;;2.47;1.55;;;18.60;99.90;;;;;;5002137;28;20747;-77
2023/07/21 11:15:55;;;;;;;2.33;1.15;;;18.40;99.90;;;;;;5003606;28;20030;-77
2023/07/21 11:18:22;;;;;;;3.55;1.90;;;18.40;99.90;;;;;;5011300;28;20052;-77
2023/07/21 11:20:54;;;;;;;3.20;1.95;;;18.30;99.90;;;;;;4993841;28;20273;-76
2023/07/21 11:23:26;;;;;;;3.30;1.50;;;18.20;99.90;;;;;;5007604;28;20050;-76
2023/07/21 11:26:11;;;;;;;4.15;1.90;;;18.10;99.90;;;;;;5000597;28;20365;-77
2023/07/21 11:28:41;;;;;;;2.40;1.65;;;18.00;99.90;;;;;;5000055;28;20049;-75
2023/07/21 11:31:15;;;;;;;4.22;2.30;;;18.00;99.90;;;;;;5000944;28;20041;-77
2023/07/21 11:33:47;;;;;;;2.63;1.60;;;18.10;99.90;;;;;;4999924;28;20038;-78
2023/07/21 11:36:13;;;;;;;;;;;18.00;99.90;;;;;;5000443;28;20050;-77
2023/07/21 11:38:38;;;;;;;2.83;1.50;;;18.00;99.90;;;;;;5000797;28;19929;-75
2023/07/21 11:41:07;;;;;;;3.88;1.30;;;18.00;99.90;;;;;;5006628;28;20258;-74
2023/07/21 11:43:47;;;;;;;4.93;2.00;;;17.90;99.90;;;;;;5000472;28;20073;-74
2023/07/21 11:46:25;;;;;;;3.92;1.70;;;17.90;99.90;;;;;;5001716;28;20042;-74
2023/07/21 11:48:51;;;;;;;13.57;2.40;;;17.90;99.90;;;;;;4984439;28;20030;-77
2023/07/21 11:51:17;;;;;;;7.40;2.25;;;17.70;99.90;;;;;;5009729;28;20485;-77
2023/07/21 11:53:48;;;;;;;7.20;3.63;;;17.40;99.90;;;;;;5006927;28;20069;-77
2023/07/21 11:56:15;;;;;;;5.78;2.78;;;17.20;99.90;;;;;;5007558;28;20049;-77
2023/07/21 11:58:44;;;;;;;4.88;2.25;;;17.00;99.90;;;;;;5003734;28;20093;-75
2023/07/21 12:01:10;;;;;;;2.88;1.67;;;16.80;99.90;;;;;;5005401;28;20060;-77
2023/07/21 12:03:42;;;;;;;4.53;2.83;;;16.70;99.90;;;;;;5008266;28;20065;-76
2023/07/21 12:06:09;;;;;;;3.53;1.85;;;16.50;99.90;;;;;;4990252;28;20128;-76
2023/07/21 12:08:36;;;;;;;3.70;2.00;;;16.40;99.90;;;;;;4997682;28;20041;-76
2023/07/21 12:11:02;;;;;;;4.43;2.03;;;16.40;99.90;;;;;;5002185;28;20508;-77
2023/07/21 12:13:27;;;;;;;3.38;1.85;;;16.30;99.90;;;;;;4993852;28;20488;-77
2023/07/21 12:15:53;;;;;;;3.65;1.90;;;16.30;99.90;;;;;;5005745;28;20045;-77
2023/07/21 12:18:19;;;;;;;4.55;2.20;;;16.30;99.90;;;;;;5002893;28;20037;-77
2023/07/21 12:20:45;;;;;;;3.53;1.92;;;16.30;99.90;;;;;;5003791;28;20448;-76
2023/07/21 12:23:11;;;;;;;2.10;1.33;;;16.30;99.90;;;;;;5012541;28;20038;-76
2023/07/21 12:25:37;;;;;;;2.63;1.83;;;16.30;99.90;;;;;;5007310;28;20073;-78
2023/07/21 12:28:04;;;;;;;2.97;1.10;;;16.20;99.90;;;;;;5012877;28;20587;-76
2023/07/21 12:30:30;;;;;;;2.53;1.77;;;16.20;99.90;;;;;;5007720;28;20088;-75
2023/07/21 12:32:55;;;;;;;2.55;1.50;;;16.20;99.90;;;;;;5002687;28;20049;-76
2023/07/21 12:35:21;;;;;;;2.83;1.75;;;16.30;99.90;;;;;;5003031;28;20556;-77
2023/07/21 12:37:47;;;;;;;3.33;1.52;;;16.30;99.90;;;;;;5006885;28;20120;-75
2023/07/21 12:40:12;;;;;;;2.22;1.58;;;16.30;99.90;;;;;;5001540;28;20395;-75
2023/07/21 12:42:41;;;;;;;2.15;1.80;;;16.30;99.90;;;;;;5010024;28;20404;-76
2023/07/21 12:45:08;;;;;;;4.28;2.30;;;16.30;99.90;;;;;;4995160;28;20045;-76
2023/07/21 12:47:37;;;;;;;2.30;1.60;;;16.30;99.90;;;;;;5011378;28;20069;-76
2023/07/21 12:50:03;;;;;;;2.22;1.52;;;16.30;99.90;;;;;;5009783;28;20042;-76